createdAt,value
2023-05-10T00:02:43.342Z,47.02
2023-05-10T00:12:44.885Z,46.82
2023-05-10T00:22:46.282Z,46.89
2023-05-10T00:32:49.200Z,46.95
2023-05-10T00:42:50.823Z,46.87
2023-05-10T00:52:52.508Z,46.91
2023-05-10T01:02:57.148Z,46.82
2023-05-10T01:12:58.632Z,46.83
2023-05-10T01:23:20.099Z,46.87
2023-05-10T01:33:42.808Z,46.76
2023-05-10T01:44:23.305Z,46.78
2023-05-10T01:54:24.868Z,46.79
2023-05-10T02:04:26.682Z,46.78
2023-05-10T02:14:28.080Z,47.03
2023-05-10T02:24:29.514Z,46.93
2023-05-10T02:34:31.046Z,46.93
2023-05-10T02:44:32.838Z,46.85
2023-05-10T02:54:35.319Z,46.83
2023-05-10T03:04:36.747Z,46.85
2023-05-10T03:14:54.333Z,46.97
2023-05-10T03:24:57.416Z,46.88
2023-05-10T03:34:58.953Z,46.85
2023-05-10T03:45:00.338Z,46.81
2023-05-10T03:55:03.747Z,46.89
2023-05-10T04:05:05.381Z,46.89
2023-05-10T04:15:07.785Z,46.82
2023-05-10T04:25:09.461Z,46.70
2023-05-10T04:35:11.548Z,46.68
2023-05-10T04:45:13.197Z,46.68
2023-05-10T04:55:14.616Z,46.78
2023-05-10T05:05:15.992Z,46.79
2023-05-10T05:15:17.861Z,46.56
2023-05-10T05:25:19.324Z,46.64
2023-05-10T05:35:20.803Z,46.68
2023-05-10T05:45:22.197Z,46.60
2023-05-10T05:55:24.890Z,46.17
2023-05-10T06:05:26.320Z,46.23
2023-05-10T06:15:28.182Z,46.03
2023-05-10T06:25:29.762Z,46.00
2023-05-10T06:35:32.221Z,45.96
2023-05-10T06:45:33.762Z,46.06
2023-05-10T06:55:35.219Z,46.15
2023-05-10T07:05:36.985Z,45.97
2023-05-10T07:15:38.435Z,46.25
2023-05-10T07:25:40.027Z,46.24
2023-05-10T07:35:41.523Z,46.06
2023-05-10T07:45:43.263Z,46.27
2023-05-10T07:55:44.670Z,46.06
2023-05-10T08:05:46.238Z,46.04
2023-05-10T08:15:48.347Z,45.58
2023-05-10T08:25:49.925Z,45.76
2023-05-10T08:35:51.308Z,45.66
2023-05-10T08:45:52.701Z,45.76
2023-05-10T08:55:54.214Z,45.52
2023-05-10T09:05:56.739Z,45.65
2023-05-10T09:16:02.130Z,45.43
2023-05-10T09:26:08.470Z,45.54
2023-05-10T09:36:09.985Z,45.35
2023-05-10T09:46:12.121Z,45.11
2023-05-10T09:56:13.705Z,45.34
2023-05-10T10:06:29.511Z,45.25
2023-05-10T10:16:32.268Z,44.52
2023-05-10T10:26:38.939Z,44.81
2023-05-10T10:36:45.846Z,44.46
2023-05-10T10:47:24.958Z,44.47
2023-05-10T10:57:29.557Z,44.91
2023-05-10T11:07:31.011Z,44.90
2023-05-10T11:17:33.887Z,45.28
2023-05-10T11:27:38.534Z,44.87
2023-05-10T11:37:42.222Z,44.48
2023-05-10T11:47:44.475Z,44.09
2023-05-10T11:57:46.908Z,44.07
2023-05-10T12:07:48.432Z,44.21
2023-05-10T12:17:50.216Z,44.21
2023-05-10T12:27:58.570Z,43.86
2023-05-10T12:38:00.155Z,43.19
2023-05-10T12:48:01.585Z,43.19
2023-05-10T12:58:03.143Z,43.10
2023-05-10T13:08:04.558Z,43.07
2023-05-10T13:18:06.177Z,43.09
2023-05-10T13:28:07.854Z,42.67
2023-05-10T13:38:09.514Z,42.89
2023-05-10T13:48:11.047Z,43.04
2023-05-10T13:58:13.649Z,43.20
2023-05-10T14:08:15.535Z,43.11
2023-05-10T14:18:17.016Z,42.99
2023-05-10T14:28:21.789Z,42.85
2023-05-10T14:38:23.265Z,42.89
2023-05-10T14:48:24.661Z,42.98
2023-05-10T14:58:26.416Z,43.22
2023-05-10T15:08:27.874Z,43.20
2023-05-10T15:18:29.330Z,43.28
2023-05-10T15:28:32.443Z,43.53
2023-05-10T15:38:34.421Z,43.50
2023-05-10T15:48:36.388Z,43.37
2023-05-10T15:58:41.190Z,43.54
2023-05-10T16:08:42.621Z,43.85
2023-05-10T16:18:44.125Z,43.87
2023-05-10T16:28:45.607Z,43.93
2023-05-10T16:38:47.032Z,44.17
2023-05-10T16:48:48.403Z,44.22
2023-05-10T16:58:49.900Z,44.52
2023-05-10T17:08:51.645Z,44.88
2023-05-10T17:18:53.380Z,44.93
2023-05-10T17:28:54.908Z,45.10
2023-05-10T17:38:56.282Z,45.35
2023-05-10T17:48:57.827Z,45.19
2023-05-10T17:58:59.439Z,45.44
2023-05-10T18:09:00.821Z,45.43
2023-05-10T18:19:02.435Z,45.42
2023-05-10T18:29:04.157Z,45.53
2023-05-10T18:39:05.563Z,45.63
2023-05-10T18:49:08.438Z,45.73
2023-05-10T18:59:10.058Z,45.78
2023-05-10T19:09:11.814Z,45.80
2023-05-10T19:19:14.326Z,45.91
2023-05-10T19:29:15.732Z,45.95
2023-05-10T19:39:17.155Z,45.76
2023-05-10T19:49:18.682Z,46.07
2023-05-10T19:59:20.073Z,45.97
2023-05-10T20:09:21.454Z,46.02
2023-05-10T20:19:22.841Z,46.03
2023-05-10T20:29:24.396Z,46.04
2023-05-10T20:39:26.013Z,46.06
2023-05-10T20:49:27.928Z,46.27
2023-05-10T20:59:29.322Z,46.32
2023-05-10T21:09:30.734Z,46.20
2023-05-10T21:19:32.163Z,46.34
2023-05-10T21:29:34.181Z,46.51
2023-05-10T21:39:36.007Z,46.38
2023-05-10T21:49:37.433Z,46.39
2023-05-10T21:59:39.532Z,46.65
2023-05-10T22:09:40.928Z,46.30
2023-05-10T22:19:42.490Z,46.62
2023-05-10T22:29:44.046Z,46.41
2023-05-10T22:39:45.775Z,46.66
2023-05-10T22:49:47.180Z,46.63
2023-05-10T22:59:48.732Z,46.69
2023-05-10T23:09:50.118Z,46.55
2023-05-10T23:19:51.489Z,46.72
2023-05-10T23:29:55.427Z,46.72
2023-05-10T23:39:56.929Z,46.68
2023-05-10T23:49:58.439Z,46.68
2023-05-10T23:59:59.822Z,46.68
